Wetterdaten: Woche 24.09.12 - 30.09.12 (KW39)
Datum Zeit Temp. Innen Temp. Aussen UV X Diff Temp. Feuchte Inne Feuchte Auss Sonnenschein Luftdruck Regen ab 0,1 Wind Sonnenschein T Regendauer Windben
24.09.2012 00:00 19,1 C 11,5 C 0,0 UV-I 0,0 C 52 % 85 % 0 % 1001,7 hPa 0,0 l/m 4,9 km/h (1 Bft) 0,00 h 0,00 h 7,9 km/h (2 Bft)
24.09.2012 01:00 19,0 C 11,2 C 0,0 UV-I 0,0 C 53 % 87 % 0 % 999,9 hPa 0,0 l/m 5,3 km/h (1 Bft) 0,00 h 0,00 h 7,4 km/h (2 Bft)
24.09.2012 02:00 19,0 C 11,4 C 0,0 UV-I 0,0 C 53 % 88 % 0 % 998,4 hPa 0,0 l/m 2,4 km/h (1 Bft) 0,00 h 0,00 h 3,8 km/h (1 Bft)
24.09.2012 03:00 19,1 C 12,6 C 0,0 UV-I 0,0 C 54 % 88 % 0 % 997,4 hPa 0,0 l/m 2,0 km/h (1 Bft) 0,00 h 0,20 h 4,0 km/h (1 Bft)
24.09.2012 04:00 19,2 C 12,6 C 0,0 UV-I 0,0 C 55 % 89 % 0 % 997,5 hPa 4,2 l/m 1,8 km/h (1 Bft) 0,00 h 0,73 h 2,3 km/h (1 Bft)
24.09.2012 05:00 19,2 C 13,3 C 0,0 UV-I 0,0 C 57 % 93 % 0 % 996,1 hPa 0,0 l/m 1,3 km/h (1 Bft) 0,00 h 0,03 h 3,1 km/h (1 Bft)
24.09.2012 06:00 19,2 C 13,2 C 0,0 UV-I 0,0 C 59 % 95 % 0 % 995,0 hPa 0,0 l/m 4,3 km/h (1 Bft) 0,00 h 0,00 h 6,3 km/h (2 Bft)
24.09.2012 07:00 19,4 C 13,5 C 0,0 UV-I 0,0 C 61 % 96 % 0 % 994,4 hPa 0,1 l/m 7,1 km/h (2 Bft) 0,00 h 0,00 h 10,1 km/h (2 Bft)
24.09.2012 08:00 19,5 C 14,1 C 0,0 UV-I 0,0 C 62 % 96 % 0 % 994,0 hPa 0,0 l/m 6,6 km/h (2 Bft) 0,00 h 0,00 h 9,0 km/h (2 Bft)
24.09.2012 09:00 19,7 C 15,0 C 0,0 UV-I 0,0 C 63 % 96 % 0 % 993,8 hPa 0,0 l/m 6,9 km/h (2 Bft) 0,00 h 0,10 h 8,5 km/h (2 Bft)
24.09.2012 10:00 19,9 C 15,8 C 0,0 UV-I 0,2 C 64 % 96 % 5 % 993,3 hPa 1,6 l/m 8,4 km/h (2 Bft) 0,00 h 0,40 h 13,2 km/h (3 Bft)
24.09.2012 11:00 20,0 C 16,2 C 0,1 UV-I 0,0 C 66 % 96 % 0 % 992,9 hPa 0,5 l/m 8,1 km/h (2 Bft) 0,00 h 0,17 h 10,9 km/h (2 Bft)
24.09.2012 12:00 20,3 C 17,2 C 0,6 UV-I 0,3 C 68 % 97 % 9 % 991,7 hPa 0,0 l/m 6,9 km/h (2 Bft) 0,00 h 0,07 h 9,3 km/h (2 Bft)
24.09.2012 13:00 20,6 C 18,5 C 2,0 UV-I 0,7 C 69 % 95 % 20 % 991,2 hPa 0,4 l/m 7,4 km/h (2 Bft) 0,00 h 0,23 h 9,9 km/h (2 Bft)
24.09.2012 14:00 21,3 C 20,1 C 1,8 UV-I 2,7 C 69 % 90 % 67 % 991,4 hPa 0,0 l/m 8,6 km/h (2 Bft) 0,40 h 0,00 h 14,0 km/h (3 Bft)
24.09.2012 15:00 22,2 C 21,2 C 1,8 UV-I 2,4 C 64 % 74 % 64 % 990,5 hPa 0,0 l/m 13,1 km/h (3 Bft) 0,47 h 0,07 h 20,3 km/h (4 Bft)
24.09.2012 16:00 21,9 C 18,2 C 0,4 UV-I 0,2 C 60 % 78 % 5 % 992,2 hPa 0,1 l/m 17,1 km/h (3 Bft) 0,00 h 0,10 h 21,8 km/h (4 Bft)
24.09.2012 17:00 21,0 C 16,2 C 0,1 UV-I 0,0 C 58 % 81 % 0 % 994,0 hPa 0,0 l/m 16,6 km/h (3 Bft) 0,00 h 0,10 h 18,7 km/h (3 Bft)
24.09.2012 18:00 20,2 C 15,7 C 0,0 UV-I 0,0 C 55 % 75 % 0 % 995,2 hPa 0,0 l/m 12,7 km/h (3 Bft) 0,00 h 0,00 h 17,9 km/h (3 Bft)
24.09.2012 19:00 19,8 C 15,6 C 0,0 UV-I 0,0 C 53 % 71 % 0 % 996,0 hPa 0,0 l/m 9,6 km/h (2 Bft) 0,00 h 0,00 h 15,1 km/h (3 Bft)
24.09.2012 20:00 19,6 C 15,3 C 0,0 UV-I 0,0 C 53 % 72 % 0 % 996,5 hPa 0,0 l/m 6,0 km/h (2 Bft) 0,00 h 0,00 h 9,2 km/h (2 Bft)
24.09.2012 21:00 19,5 C 15,5 C 0,0 UV-I 0,0 C 55 % 75 % 0 % 996,9 hPa 0,0 l/m 7,3 km/h (2 Bft) 0,00 h 0,00 h 10,8 km/h (2 Bft)
24.09.2012 22:00 19,5 C 15,5 C 0,0 UV-I 0,0 C 55 % 75 % 0 % 996,6 hPa 0,0 l/m 6,7 km/h (2 Bft) 0,00 h 0,00 h 8,6 km/h (2 Bft)
24.09.2012 23:00 19,4 C 15,7 C 0,0 UV-I 0,0 C 55 % 74 % 0 % 996,4 hPa 0,0 l/m 7,9 km/h (2 Bft) 0,00 h 0,00 h 10,1 km/h (2 Bft)
25.09.2012 00:00 19,3 C 15,7 C 0,0 UV-I 0,0 C 55 % 75 % 0 % 996,3 hPa 0,0 l/m 7,1 km/h (2 Bft) 0,00 h 0,00 h 10,4 km/h (2 Bft)
25.09.2012 01:00 19,4 C 15,7 C 0,0 UV-I 0,0 C 56 % 77 % 0 % 995,9 hPa 0,2 l/m 8,3 km/h (2 Bft) 0,00 h 0,43 h 12,0 km/h (2 Bft)
25.09.2012 02:00 19,3 C 14,2 C 0,0 UV-I 0,0 C 60 % 87 % 0 % 995,8 hPa 1,7 l/m 7,9 km/h (2 Bft) 0,00 h 0,17 h 12,8 km/h (3 Bft)
25.09.2012 03:00 19,2 C 13,0 C 0,0 UV-I 0,0 C 62 % 91 % 0 % 995,4 hPa 0,1 l/m 4,8 km/h (1 Bft) 0,00 h 0,00 h 7,4 km/h (2 Bft)
25.09.2012 04:00 19,2 C 13,1 C 0,0 UV-I 0,0 C 62 % 93 % 0 % 995,1 hPa 0,1 l/m 4,9 km/h (1 Bft) 0,00 h 0,00 h 7,8 km/h (2 Bft)
25.09.2012 05:00 19,2 C 13,5 C 0,0 UV-I 0,0 C 62 % 93 % 0 % 994,8 hPa 0,1 l/m 3,8 km/h (1 Bft) 0,00 h 0,23 h 5,8 km/h (2 Bft)
25.09.2012 06:00 19,2 C 13,3 C 0,0 UV-I 0,0 C 62 % 91 % 0 % 995,0 hPa 0,1 l/m 4,7 km/h (1 Bft) 0,00 h 0,17 h 7,8 km/h (2 Bft)
25.09.2012 07:00 19,1 C 12,6 C 0,0 UV-I 0,0 C 61 % 92 % 0 % 995,7 hPa 0,0 l/m 4,2 km/h (1 Bft) 0,00 h 0,00 h 6,0 km/h (2 Bft)
25.09.2012 08:00 19,1 C 12,6 C 0,0 UV-I 0,0 C 61 % 93 % 0 % 996,1 hPa 0,0 l/m 2,7 km/h (1 Bft) 0,00 h 0,00 h 5,4 km/h (1 Bft)
25.09.2012 09:00 19,2 C 12,8 C 0,0 UV-I 0,0 C 60 % 91 % 0 % 996,5 hPa 0,0 l/m 2,8 km/h (1 Bft) 0,00 h 0,00 h 3,7 km/h (1 Bft)
25.09.2012 10:00 19,2 C 13,1 C 0,2 UV-I 0,6 C 60 % 91 % 17 % 996,6 hPa 0,0 l/m 3,4 km/h (1 Bft) 0,00 h 0,00 h 4,9 km/h (1 Bft)
25.09.2012 11:00 19,5 C 14,1 C 0,1 UV-I 0,7 C 59 % 89 % 20 % 996,8 hPa 0,0 l/m 4,5 km/h (1 Bft) 0,00 h 0,10 h 6,4 km/h (2 Bft)
25.09.2012 12:00 19,6 C 13,8 C 0,0 UV-I 0,0 C 60 % 89 % 0 % 997,1 hPa 0,7 l/m 2,6 km/h (1 Bft) 0,00 h 0,43 h 3,0 km/h (1 Bft)
25.09.2012 13:00 19,5 C 13,9 C 0,0 UV-I 0,0 C 60 % 89 % 0 % 997,2 hPa 0,0 l/m 4,8 km/h (1 Bft) 0,00 h 0,00 h 7,4 km/h (2 Bft)
25.09.2012 14:00 19,3 C 14,6 C 0,2 UV-I 0,6 C 58 % 81 % 18 % 997,5 hPa 0,0 l/m 7,7 km/h (2 Bft) 0,00 h 0,00 h 12,0 km/h (2 Bft)
25.09.2012 15:00 19,5 C 15,5 C 0,9 UV-I 2,0 C 56 % 76 % 58 % 997,6 hPa 0,0 l/m 7,0 km/h (2 Bft) 0,00 h 0,00 h 9,1 km/h (2 Bft)
25.09.2012 16:00 19,9 C 15,5 C 0,7 UV-I 1,5 C 55 % 75 % 42 % 997,5 hPa 0,0 l/m 8,2 km/h (2 Bft) 0,10 h 0,00 h 13,2 km/h (3 Bft)
25.09.2012 17:00 20,3 C 15,8 C 0,4 UV-I 1,0 C 53 % 73 % 29 % 997,4 hPa 0,0 l/m 8,5 km/h (2 Bft) 0,00 h 0,00 h 11,6 km/h (2 Bft)
25.09.2012 18:00 20,0 C 15,4 C 0,0 UV-I 0,1 C 53 % 75 % 3 % 997,7 hPa 0,0 l/m 6,7 km/h (2 Bft) 0,00 h 0,00 h 7,8 km/h (2 Bft)
25.09.2012 19:00 19,7 C 14,6 C 0,0 UV-I 0,0 C 54 % 79 % 0 % 998,0 hPa 0,0 l/m 3,9 km/h (1 Bft) 0,00 h 0,00 h 5,2 km/h (1 Bft)
25.09.2012 20:00 19,6 C 13,9 C 0,0 UV-I 0,0 C 55 % 81 % 0 % 998,2 hPa 0,0 l/m 6,1 km/h (2 Bft) 0,00 h 0,00 h 8,9 km/h (2 Bft)
25.09.2012 21:00 19,3 C 13,8 C 0,0 UV-I 0,0 C 56 % 83 % 0 % 998,3 hPa 0,0 l/m 7,9 km/h (2 Bft) 0,00 h 0,00 h 10,6 km/h (2 Bft)
25.09.2012 22:00 19,2 C 13,8 C 0,0 UV-I 0,0 C 56 % 83 % 0 % 997,9 hPa 0,0 l/m 8,7 km/h (2 Bft) 0,00 h 0,00 h 11,6 km/h (2 Bft)
25.09.2012 23:00 19,2 C 13,6 C 0,0 UV-I 0,0 C 57 % 84 % 0 % 997,9 hPa 0,0 l/m 9,2 km/h (2 Bft) 0,00 h 0,00 h 11,3 km/h (2 Bft)
26.09.2012 00:00 19,2 C 13,5 C 0,0 UV-I 0,0 C 57 % 85 % 0 % 997,8 hPa 0,0 l/m 10,0 km/h (2 Bft) 0,00 h 0,03 h 14,0 km/h (3 Bft)
26.09.2012 01:00 19,1 C 13,2 C 0,0 UV-I 0,0 C 58 % 87 % 0 % 997,9 hPa 0,1 l/m 9,1 km/h (2 Bft) 0,00 h 0,73 h 12,1 km/h (2 Bft)
26.09.2012 02:00 19,1 C 12,6 C 0,0 UV-I 0,0 C 59 % 90 % 0 % 997,6 hPa 0,6 l/m 6,9 km/h (2 Bft) 0,00 h 0,87 h 10,2 km/h (2 Bft)
26.09.2012 03:00 19,0 C 12,3 C 0,0 UV-I 0,0 C 61 % 93 % 0 % 997,2 hPa 1,1 l/m 5,0 km/h (1 Bft) 0,00 h 0,93 h 6,4 km/h (2 Bft)
26.09.2012 04:00 19,0 C 12,1 C 0,0 UV-I 0,0 C 61 % 95 % 0 % 997,4 hPa 1,4 l/m 5,4 km/h (1 Bft) 0,00 h 1,00 h 8,5 km/h (2 Bft)
26.09.2012 05:00 18,9 C 12,0 C 0,0 UV-I 0,0 C 62 % 95 % 0 % 996,8 hPa 1,1 l/m 4,7 km/h (1 Bft) 0,00 h 1,00 h 6,9 km/h (2 Bft)
26.09.2012 06:00 18,9 C 12,0 C 0,0 UV-I 0,0 C 62 % 96 % 0 % 996,7 hPa 1,7 l/m 5,7 km/h (1 Bft) 0,00 h 1,00 h 8,9 km/h (2 Bft)
26.09.2012 07:00 18,8 C 12,0 C 0,0 UV-I 0,0 C 63 % 97 % 0 % 996,5 hPa 0,6 l/m 4,3 km/h (1 Bft) 0,00 h 1,00 h 5,5 km/h (1 Bft)
26.09.2012 08:00 18,8 C 12,2 C 0,0 UV-I 0,0 C 64 % 97 % 0 % 997,1 hPa 3,1 l/m 1,6 km/h (1 Bft) 0,00 h 0,87 h 2,3 km/h (1 Bft)
26.09.2012 09:00 18,8 C 12,3 C 0,0 UV-I 0,0 C 65 % 97 % 0 % 997,4 hPa 0,1 l/m 1,6 km/h (1 Bft) 0,00 h 0,20 h 3,0 km/h (1 Bft)
26.09.2012 10:00 19,0 C 12,7 C 0,0 UV-I 0,1 C 65 % 98 % 2 % 998,0 hPa 0,1 l/m 3,0 km/h (1 Bft) 0,00 h 0,13 h 4,6 km/h (1 Bft)
26.09.2012 11:00 19,2 C 13,2 C 0,5 UV-I 0,5 C 64 % 98 % 13 % 998,5 hPa 0,0 l/m 3,6 km/h (1 Bft) 0,00 h 0,00 h 6,6 km/h (2 Bft)
26.09.2012 12:00 19,5 C 14,0 C 0,6 UV-I 1,7 C 63 % 97 % 47 % 998,6 hPa 0,0 l/m 4,5 km/h (1 Bft) 0,00 h 0,00 h 6,9 km/h (2 Bft)
26.09.2012 13:00 19,7 C 15,1 C 0,9 UV-I 2,4 C 63 % 93 % 67 % 998,9 hPa 0,0 l/m 3,8 km/h (1 Bft) 0,10 h 0,00 h 6,3 km/h (2 Bft)
26.09.2012 14:00 20,0 C 15,9 C 0,8 UV-I 2,0 C 60 % 85 % 56 % 999,4 hPa 0,0 l/m 5,5 km/h (1 Bft) 0,20 h 0,00 h 8,4 km/h (2 Bft)
26.09.2012 15:00 19,8 C 15,8 C 0,4 UV-I 0,9 C 58 % 79 % 26 % 999,7 hPa 0,0 l/m 6,8 km/h (2 Bft) 0,00 h 0,00 h 11,0 km/h (2 Bft)
26.09.2012 16:00 19,7 C 15,8 C 0,1 UV-I 0,6 C 57 % 79 % 16 % 999,7 hPa 0,0 l/m 2,6 km/h (1 Bft) 0,00 h 0,00 h 3,4 km/h (1 Bft)
26.09.2012 17:00 19,6 C 15,6 C 0,0 UV-I 0,2 C 57 % 77 % 7 % 999,8 hPa 0,0 l/m 3,5 km/h (1 Bft) 0,00 h 0,00 h 5,8 km/h (2 Bft)
26.09.2012 18:00 19,5 C 15,3 C 0,0 UV-I 0,0 C 56 % 77 % 0 % 1000,3 hPa 0,0 l/m 5,6 km/h (1 Bft) 0,00 h 0,00 h 8,2 km/h (2 Bft)
26.09.2012 19:00 19,4 C 14,6 C 0,0 UV-I 0,0 C 56 % 79 % 0 % 1000,5 hPa 0,0 l/m 2,9 km/h (1 Bft) 0,00 h 0,00 h 3,8 km/h (1 Bft)
26.09.2012 20:00 19,3 C 13,4 C 0,0 UV-I 0,0 C 57 % 83 % 0 % 1000,7 hPa 0,0 l/m 2,1 km/h (1 Bft) 0,00 h 0,07 h 3,4 km/h (1 Bft)
26.09.2012 21:00 19,2 C 12,8 C 0,0 UV-I 0,0 C 57 % 86 % 0 % 1001,3 hPa 0,0 l/m 3,8 km/h (1 Bft) 0,00 h 0,00 h 5,3 km/h (1 Bft)
26.09.2012 22:00 19,1 C 12,4 C 0,0 UV-I 0,0 C 57 % 87 % 0 % 1001,6 hPa 0,0 l/m 2,5 km/h (1 Bft) 0,00 h 0,00 h 4,1 km/h (1 Bft)
26.09.2012 23:00 18,9 C 11,9 C 0,0 UV-I 0,0 C 58 % 88 % 0 % 1001,4 hPa 0,0 l/m 0,2 km/h (0 Bft) 0,00 h 0,00 h 0,7 km/h (0 Bft)
27.09.2012 00:00 18,7 C 11,3 C 0,0 UV-I 0,0 C 59 % 90 % 0 % 1001,5 hPa 0,0 l/m 1,2 km/h (1 Bft) 0,00 h 0,00 h 2,3 km/h (1 Bft)
27.09.2012 01:00 18,5 C 11,0 C 0,0 UV-I 0,0 C 59 % 92 % 0 % 1002,0 hPa 0,0 l/m 0,5 km/h (0 Bft) 0,00 h 0,00 h 0,5 km/h (0 Bft)
27.09.2012 02:00 18,4 C 11,5 C 0,0 UV-I 0,0 C 60 % 93 % 0 % 1002,1 hPa 0,0 l/m 1,9 km/h (1 Bft) 0,00 h 0,00 h 2,8 km/h (1 Bft)
27.09.2012 03:00 18,5 C 11,8 C 0,0 UV-I 0,0 C 59 % 92 % 0 % 1001,8 hPa 0,0 l/m 2,5 km/h (1 Bft) 0,00 h 0,00 h 4,8 km/h (1 Bft)
27.09.2012 04:00 18,6 C 12,4 C 0,0 UV-I 0,0 C 59 % 91 % 0 % 1002,4 hPa 0,1 l/m 2,1 km/h (1 Bft) 0,00 h 0,23 h 3,7 km/h (1 Bft)
27.09.2012 05:00 18,7 C 12,4 C 0,0 UV-I 0,0 C 61 % 92 % 0 % 1002,7 hPa 0,1 l/m 1,1 km/h (1 Bft) 0,00 h 0,00 h 2,6 km/h (1 Bft)
27.09.2012 06:00 18,8 C 12,7 C 0,0 UV-I 0,0 C 61 % 92 % 0 % 1002,6 hPa 0,0 l/m 3,1 km/h (1 Bft) 0,00 h 0,00 h 6,0 km/h (2 Bft)
27.09.2012 07:00 18,7 C 12,7 C 0,0 UV-I 0,0 C 61 % 92 % 0 % 1002,6 hPa 0,0 l/m 2,5 km/h (1 Bft) 0,00 h 0,00 h 3,8 km/h (1 Bft)
27.09.2012 08:00 18,7 C 12,6 C 0,0 UV-I 0,0 C 63 % 92 % 0 % 1002,9 hPa 0,6 l/m 2,5 km/h (1 Bft) 0,00 h 0,50 h 3,3 km/h (1 Bft)
27.09.2012 09:00 18,7 C 12,4 C 0,0 UV-I 0,0 C 63 % 94 % 0 % 1003,3 hPa 0,1 l/m 1,7 km/h (1 Bft) 0,00 h 0,43 h 2,7 km/h (1 Bft)
27.09.2012 10:00 19,0 C 13,3 C 0,5 UV-I 1,1 C 63 % 95 % 29 % 1003,9 hPa 0,0 l/m 2,8 km/h (1 Bft) 0,17 h 0,03 h 5,6 km/h (1 Bft)
27.09.2012 11:00 19,0 C 14,8 C 0,9 UV-I 2,6 C 62 % 88 % 73 % 1004,0 hPa 0,0 l/m 5,9 km/h (2 Bft) 0,37 h 0,00 h 9,4 km/h (2 Bft)
27.09.2012 12:00 19,2 C 15,6 C 1,8 UV-I 3,2 C 60 % 81 % 75 % 1003,6 hPa 0,0 l/m 7,7 km/h (2 Bft) 0,53 h 0,17 h 11,0 km/h (2 Bft)
27.09.2012 13:00 19,8 C 16,2 C 3,2 UV-I 5,0 C 57 % 76 % 100 % 1004,0 hPa 0,0 l/m 8,7 km/h (2 Bft) 1,00 h 0,00 h 13,7 km/h (3 Bft)
27.09.2012 14:00 20,8 C 16,5 C 3,2 UV-I 4,2 C 55 % 74 % 88 % 1005,2 hPa 0,0 l/m 6,9 km/h (2 Bft) 0,77 h 0,00 h 9,5 km/h (2 Bft)
27.09.2012 15:00 22,1 C 17,4 C 3,3 UV-I 4,8 C 52 % 72 % 99 % 1004,6 hPa 0,0 l/m 6,0 km/h (2 Bft) 0,97 h 0,00 h 7,8 km/h (2 Bft)
27.09.2012 16:00 23,1 C 17,3 C 2,2 UV-I 4,1 C 50 % 73 % 87 % 1004,0 hPa 0,0 l/m 6,6 km/h (2 Bft) 0,77 h 0,07 h 9,0 km/h (2 Bft)
27.09.2012 17:00 22,1 C 14,7 C 0,0 UV-I 0,0 C 53 % 84 % 0 % 1005,2 hPa 3,0 l/m 3,2 km/h (1 Bft) 0,00 h 0,45 h 4,2 km/h (1 Bft)
27.09.2012 18:00 20,9 C 12,9 C 0,0 UV-I 0,0 C 57 % 91 % 0 % 1006,5 hPa 1,4 l/m 1,9 km/h (1 Bft) 0,00 h 0,00 h 3,2 km/h (1 Bft)
27.09.2012 19:00 20,1 C 12,2 C 0,0 UV-I 0,0 C 58 % 92 % 0 % 1007,5 hPa 0,0 l/m 1,0 km/h (0 Bft) 0,00 h 0,00 h 2,0 km/h (1 Bft)
27.09.2012 20:00 19,6 C 12,2 C 0,0 UV-I 0,0 C 59 % 94 % 0 % 1008,7 hPa 0,4 l/m 1,4 km/h (1 Bft) 0,00 h 0,27 h 2,5 km/h (1 Bft)
27.09.2012 21:00 19,4 C 12,4 C 0,0 UV-I 0,0 C 61 % 95 % 0 % 1010,2 hPa 0,0 l/m 2,7 km/h (1 Bft) 0,00 h 0,00 h 4,5 km/h (1 Bft)
27.09.2012 22:00 19,3 C 12,5 C 0,0 UV-I 0,0 C 62 % 95 % 0 % 1011,1 hPa 0,0 l/m 1,4 km/h (1 Bft) 0,00 h 0,03 h 2,0 km/h (1 Bft)
27.09.2012 23:00 19,2 C 12,4 C 0,0 UV-I 0,0 C 62 % 96 % 0 % 1011,9 hPa 0,0 l/m 2,5 km/h (1 Bft) 0,00 h 0,00 h 4,8 km/h (1 Bft)
28.09.2012 00:00 19,1 C 11,9 C 0,0 UV-I 0,0 C 62 % 96 % 0 % 1013,0 hPa 0,0 l/m 3,0 km/h (1 Bft) 0,00 h 0,03 h 6,0 km/h (2 Bft)
28.09.2012 01:00 18,9 C 11,4 C 0,0 UV-I 0,0 C 61 % 96 % 0 % 1013,4 hPa 0,1 l/m 1,4 km/h (1 Bft) 0,00 h 0,07 h 2,4 km/h (1 Bft)
28.09.2012 02:00 18,6 C 10,9 C 0,0 UV-I 0,0 C 61 % 96 % 0 % 1014,2 hPa 0,0 l/m 1,2 km/h (1 Bft) 0,00 h 0,00 h 2,4 km/h (1 Bft)
28.09.2012 03:00 18,3 C 10,5 C 0,0 UV-I 0,0 C 61 % 96 % 0 % 1014,5 hPa 0,0 l/m 0,7 km/h (0 Bft) 0,00 h 0,00 h 1,3 km/h (1 Bft)
28.09.2012 04:00 18,1 C 10,1 C 0,0 UV-I 0,0 C 61 % 97 % 0 % 1014,5 hPa 0,0 l/m 1,1 km/h (1 Bft) 0,00 h 0,00 h 1,5 km/h (1 Bft)
28.09.2012 05:00 18,0 C 10,0 C 0,0 UV-I 0,0 C 60 % 97 % 0 % 1014,6 hPa 0,0 l/m 1,6 km/h (1 Bft) 0,00 h 0,00 h 3,3 km/h (1 Bft)
28.09.2012 06:00 17,9 C 10,2 C 0,0 UV-I 0,0 C 60 % 97 % 0 % 1014,6 hPa 0,0 l/m 1,9 km/h (1 Bft) 0,00 h 0,00 h 4,1 km/h (1 Bft)
28.09.2012 07:00 18,0 C 10,6 C 0,0 UV-I 0,0 C 61 % 97 % 0 % 1014,8 hPa 0,0 l/m 1,6 km/h (1 Bft) 0,00 h 0,10 h 3,3 km/h (1 Bft)
28.09.2012 08:00 18,0 C 11,3 C 0,0 UV-I 0,0 C 61 % 97 % 0 % 1015,1 hPa 0,0 l/m 3,2 km/h (1 Bft) 0,00 h 0,00 h 5,3 km/h (1 Bft)
28.09.2012 09:00 18,2 C 12,1 C 0,0 UV-I 0,5 C 61 % 95 % 13 % 1015,4 hPa 0,0 l/m 4,1 km/h (1 Bft) 0,00 h 0,00 h 6,0 km/h (2 Bft)
28.09.2012 10:00 18,4 C 13,2 C 0,1 UV-I 1,5 C 61 % 93 % 42 % 1015,6 hPa 0,0 l/m 3,2 km/h (1 Bft) 0,00 h 0,00 h 4,4 km/h (1 Bft)
28.09.2012 11:00 18,6 C 13,8 C 0,2 UV-I 1,7 C 60 % 88 % 48 % 1015,6 hPa 0,0 l/m 4,6 km/h (1 Bft) 0,00 h 0,00 h 7,5 km/h (2 Bft)
28.09.2012 12:00 18,9 C 15,0 C 2,1 UV-I 4,6 C 59 % 84 % 94 % 1015,7 hPa 0,0 l/m 5,7 km/h (1 Bft) 0,87 h 0,00 h 9,1 km/h (2 Bft)
28.09.2012 13:00 19,5 C 16,1 C 1,8 UV-I 4,0 C 58 % 78 % 98 % 1015,8 hPa 0,0 l/m 5,5 km/h (1 Bft) 1,00 h 0,00 h 6,9 km/h (2 Bft)
28.09.2012 14:00 20,3 C 16,9 C 2,3 UV-I 4,3 C 55 % 72 % 98 % 1016,8 hPa 0,0 l/m 5,7 km/h (1 Bft) 0,97 h 0,00 h 8,1 km/h (2 Bft)
28.09.2012 15:00 21,3 C 17,6 C 2,3 UV-I 3,9 C 52 % 68 % 88 % 1015,6 hPa 0,0 l/m 6,1 km/h (2 Bft) 0,73 h 0,00 h 8,6 km/h (2 Bft)
28.09.2012 16:00 21,7 C 17,6 C 1,3 UV-I 3,2 C 50 % 67 % 86 % 1014,8 hPa 0,0 l/m 4,4 km/h (1 Bft) 0,63 h 0,00 h 6,2 km/h (2 Bft)
28.09.2012 17:00 21,6 C 18,0 C 0,7 UV-I 3,8 C 49 % 64 % 97 % 1014,3 hPa 0,0 l/m 4,6 km/h (1 Bft) 1,00 h 0,00 h 8,1 km/h (2 Bft)
28.09.2012 18:00 20,9 C 16,8 C 0,1 UV-I 1,1 C 49 % 67 % 32 % 1014,3 hPa 0,0 l/m 3,5 km/h (1 Bft) 0,43 h 0,00 h 5,1 km/h (1 Bft)
28.09.2012 19:00 20,3 C 15,2 C 0,0 UV-I 0,0 C 51 % 73 % 0 % 1014,5 hPa 0,0 l/m 0,5 km/h (0 Bft) 0,00 h 0,00 h 1,0 km/h (0 Bft)
28.09.2012 20:00 19,9 C 13,5 C 0,0 UV-I 0,0 C 53 % 78 % 0 % 1014,8 hPa 0,0 l/m 0,1 km/h (0 Bft) 0,00 h 0,00 h 0,4 km/h (0 Bft)
28.09.2012 21:00 19,5 C 12,3 C 0,0 UV-I 0,0 C 55 % 84 % 0 % 1015,1 hPa 0,0 l/m 0,2 km/h (0 Bft) 0,00 h 0,00 h 0,9 km/h (0 Bft)
28.09.2012 22:00 19,2 C 12,0 C 0,0 UV-I 0,0 C 56 % 87 % 0 % 1014,9 hPa 0,0 l/m 1,4 km/h (1 Bft) 0,00 h 0,00 h 3,8 km/h (1 Bft)
28.09.2012 23:00 19,3 C 12,8 C 0,0 UV-I 0,0 C 56 % 87 % 0 % 1014,7 hPa 0,0 l/m 2,4 km/h (1 Bft) 0,00 h 0,00 h 3,1 km/h (1 Bft)
29.09.2012 00:00 19,2 C 12,2 C 0,0 UV-I 0,0 C 56 % 87 % 0 % 1014,5 hPa 0,0 l/m 0,7 km/h (0 Bft) 0,00 h 0,00 h 1,3 km/h (1 Bft)
29.09.2012 01:00 19,0 C 11,5 C 0,0 UV-I 0,0 C 57 % 90 % 0 % 1014,4 hPa 0,0 l/m 0,9 km/h (0 Bft) 0,00 h 0,00 h 2,2 km/h (1 Bft)
29.09.2012 02:00 18,7 C 11,1 C 0,0 UV-I 0,0 C 58 % 91 % 0 % 1013,9 hPa 0,0 l/m 0,4 km/h (0 Bft) 0,00 h 0,00 h 1,1 km/h (1 Bft)
29.09.2012 03:00 18,6 C 10,8 C 0,0 UV-I 0,0 C 58 % 92 % 0 % 1013,9 hPa 0,0 l/m 0,9 km/h (0 Bft) 0,00 h 0,00 h 1,9 km/h (1 Bft)
29.09.2012 04:00 18,5 C 11,0 C 0,0 UV-I 0,0 C 59 % 94 % 0 % 1013,9 hPa 0,0 l/m 0,8 km/h (0 Bft) 0,00 h 0,00 h 1,6 km/h (1 Bft)
29.09.2012 05:00 18,6 C 11,5 C 0,0 UV-I 0,0 C 59 % 93 % 0 % 1013,6 hPa 0,0 l/m 0,9 km/h (0 Bft) 0,00 h 0,00 h 2,1 km/h (1 Bft)
29.09.2012 06:00 18,6 C 11,5 C 0,0 UV-I 0,0 C 58 % 92 % 0 % 1013,4 hPa 0,0 l/m 1,5 km/h (1 Bft) 0,00 h 0,00 h 4,1 km/h (1 Bft)
29.09.2012 07:00 18,5 C 11,8 C 0,0 UV-I 0,0 C 58 % 92 % 0 % 1013,6 hPa 0,0 l/m 3,5 km/h (1 Bft) 0,00 h 0,07 h 5,7 km/h (1 Bft)
29.09.2012 08:00 18,4 C 12,0 C 0,0 UV-I 0,0 C 59 % 91 % 0 % 1014,1 hPa 0,0 l/m 2,5 km/h (1 Bft) 0,00 h 0,00 h 4,8 km/h (1 Bft)
29.09.2012 09:00 18,5 C 12,2 C 0,1 UV-I 2,3 C 59 % 91 % 55 % 1014,6 hPa 0,0 l/m 3,7 km/h (1 Bft) 0,43 h 0,00 h 5,2 km/h (1 Bft)
29.09.2012 10:00 18,6 C 13,6 C 0,7 UV-I 5,2 C 59 % 89 % 94 % 1015,5 hPa 0,0 l/m 4,5 km/h (1 Bft) 0,87 h 0,00 h 7,1 km/h (2 Bft)
29.09.2012 11:00 18,9 C 14,4 C 1,0 UV-I 3,6 C 59 % 84 % 89 % 1015,7 hPa 0,0 l/m 5,6 km/h (1 Bft) 0,73 h 0,00 h 8,2 km/h (2 Bft)
29.09.2012 12:00 19,2 C 15,1 C 1,3 UV-I 3,5 C 58 % 80 % 88 % 1015,7 hPa 0,0 l/m 5,7 km/h (1 Bft) 0,67 h 0,00 h 9,5 km/h (2 Bft)
29.09.2012 13:00 19,6 C 14,8 C 0,3 UV-I 1,0 C 57 % 79 % 28 % 1015,5 hPa 0,4 l/m 3,9 km/h (1 Bft) 0,00 h 0,50 h 4,5 km/h (1 Bft)
29.09.2012 14:00 19,5 C 13,4 C 0,3 UV-I 0,3 C 58 % 86 % 8 % 1015,7 hPa 0,0 l/m 2,9 km/h (1 Bft) 0,03 h 0,23 h 5,0 km/h (1 Bft)
29.09.2012 15:00 20,2 C 14,8 C 1,6 UV-I 3,3 C 57 % 82 % 75 % 1016,2 hPa 0,0 l/m 4,9 km/h (1 Bft) 0,50 h 0,00 h 7,0 km/h (2 Bft)
29.09.2012 16:00 21,1 C 15,4 C 0,9 UV-I 2,3 C 55 % 80 % 58 % 1016,2 hPa 0,0 l/m 2,5 km/h (1 Bft) 0,30 h 0,00 h 5,1 km/h (1 Bft)
29.09.2012 17:00 21,1 C 15,9 C 0,5 UV-I 3,7 C 54 % 76 % 92 % 1016,0 hPa 0,0 l/m 4,0 km/h (1 Bft) 0,83 h 0,00 h 6,6 km/h (2 Bft)
29.09.2012 18:00 20,7 C 15,2 C 0,0 UV-I 1,8 C 53 % 70 % 51 % 1016,6 hPa 0,0 l/m 3,0 km/h (1 Bft) 0,73 h 0,00 h 5,7 km/h (1 Bft)
29.09.2012 19:00 20,0 C 13,0 C 0,0 UV-I 0,0 C 53 % 73 % 0 % 1017,4 hPa 0,0 l/m 0,6 km/h (0 Bft) 0,00 h 0,00 h 1,3 km/h (1 Bft)
29.09.2012 20:00 19,4 C 10,7 C 0,0 UV-I 0,0 C 54 % 78 % 0 % 1018,1 hPa 0,0 l/m 0,0 km/h (0 Bft) 0,00 h 0,00 h 0,0 km/h (0 Bft)
29.09.2012 21:00 19,0 C 9,2 C 0,0 UV-I 0,0 C 55 % 83 % 0 % 1019,0 hPa 0,0 l/m 0,0 km/h (0 Bft) 0,00 h 0,00 h 0,0 km/h (0 Bft)
29.09.2012 22:00 18,7 C 8,0 C 0,0 UV-I 0,0 C 55 % 87 % 0 % 1019,7 hPa 0,0 l/m 0,0 km/h (0 Bft) 0,00 h 0,00 h 0,0 km/h (0 Bft)
29.09.2012 23:00 18,5 C 7,4 C 0,0 UV-I 0,0 C 55 % 90 % 0 % 1020,1 hPa 0,0 l/m 0,0 km/h (0 Bft) 0,00 h 0,03 h 0,0 km/h (0 Bft)
30.09.2012 00:00 18,4 C 6,9 C 0,0 UV-I 0,0 C 55 % 91 % 0 % 1020,4 hPa 0,0 l/m 0,0 km/h (0 Bft) 0,00 h 0,00 h 0,0 km/h (0 Bft)
30.09.2012 01:00 18,3 C 7,1 C 0,0 UV-I 0,0 C 55 % 93 % 0 % 1020,4 hPa 0,0 l/m 0,1 km/h (0 Bft) 0,00 h 0,03 h 0,0 km/h (0 Bft)
30.09.2012 02:00 18,3 C 7,4 C 0,0 UV-I 0,0 C 54 % 93 % 0 % 1020,8 hPa 0,0 l/m 0,4 km/h (0 Bft) 0,00 h 0,00 h 1,3 km/h (1 Bft)
30.09.2012 03:00 18,2 C 7,4 C 0,0 UV-I 0,0 C 54 % 93 % 0 % 1020,7 hPa 0,0 l/m 0,4 km/h (0 Bft) 0,00 h 0,00 h 1,9 km/h (1 Bft)
30.09.2012 04:00 18,1 C 7,4 C 0,0 UV-I 0,0 C 53 % 92 % 0 % 1020,7 hPa 0,0 l/m 0,3 km/h (0 Bft) 0,00 h 0,00 h 0,2 km/h (0 Bft)
30.09.2012 05:00 18,0 C 7,3 C 0,0 UV-I 0,0 C 53 % 92 % 0 % 1020,7 hPa 0,0 l/m 0,5 km/h (0 Bft) 0,00 h 0,00 h 1,4 km/h (1 Bft)
30.09.2012 06:00 18,0 C 7,1 C 0,0 UV-I 0,0 C 53 % 92 % 0 % 1020,8 hPa 0,0 l/m 0,2 km/h (0 Bft) 0,00 h 0,00 h 0,3 km/h (0 Bft)
30.09.2012 07:00 17,9 C 6,9 C 0,0 UV-I 0,0 C 53 % 92 % 0 % 1021,0 hPa 0,0 l/m 0,1 km/h (0 Bft) 0,00 h 0,00 h 0,0 km/h (0 Bft)
30.09.2012 08:00 17,9 C 6,4 C 0,0 UV-I 1,4 C 53 % 92 % 29 % 1021,4 hPa 0,0 l/m 0,0 km/h (0 Bft) 0,30 h 0,00 h 0,1 km/h (0 Bft)
30.09.2012 09:00 18,0 C 8,0 C 0,3 UV-I 9,2 C 53 % 94 % 100 % 1022,0 hPa 0,0 l/m 0,3 km/h (0 Bft) 1,00 h 0,00 h 0,9 km/h (0 Bft)
30.09.2012 10:00 18,1 C 11,4 C 0,9 UV-I 9,8 C 53 % 89 % 100 % 1022,1 hPa 0,0 l/m 1,5 km/h (1 Bft) 1,00 h 0,00 h 2,3 km/h (1 Bft)
30.09.2012 11:00 18,3 C 13,9 C 2,7 UV-I 8,7 C 53 % 77 % 100 % 1022,1 hPa 0,0 l/m 3,6 km/h (1 Bft) 1,00 h 0,00 h 6,7 km/h (2 Bft)
30.09.2012 12:00 18,7 C 15,5 C 3,7 UV-I 7,7 C 52 % 68 % 100 % 1021,7 hPa 0,0 l/m 3,7 km/h (1 Bft) 1,00 h 0,00 h 5,9 km/h (2 Bft)
30.09.2012 13:00 20,0 C 16,7 C 4,6 UV-I 7,4 C 49 % 62 % 100 % 1021,7 hPa 0,0 l/m 4,2 km/h (1 Bft) 1,00 h 0,00 h 6,1 km/h (2 Bft)
30.09.2012 14:00 21,6 C 17,6 C 4,5 UV-I 7,0 C 46 % 58 % 100 % 1023,2 hPa 0,0 l/m 4,0 km/h (1 Bft) 1,00 h 0,00 h 5,4 km/h (1 Bft)
30.09.2012 15:00 23,0 C 18,2 C 4,1 UV-I 6,2 C 43 % 57 % 100 % 1021,1 hPa 0,0 l/m 4,0 km/h (1 Bft) 1,00 h 0,00 h 5,6 km/h (1 Bft)
30.09.2012 16:00 24,0 C 18,6 C 2,5 UV-I 5,6 C 39 % 55 % 100 % 1019,3 hPa 0,0 l/m 3,7 km/h (1 Bft) 1,00 h 0,00 h 5,8 km/h (2 Bft)
30.09.2012 17:00 23,4 C 18,2 C 0,6 UV-I 4,3 C 40 % 55 % 100 % 1019,1 hPa 0,0 l/m 2,4 km/h (1 Bft) 1,00 h 0,00 h 4,8 km/h (1 Bft)
30.09.2012 18:00 22,3 C 16,4 C 0,0 UV-I 1,2 C 41 % 59 % 33 % 1019,1 hPa 0,0 l/m 0,9 km/h (0 Bft) 0,67 h 0,00 h 0,6 km/h (0 Bft)
30.09.2012 19:00 21,3 C 13,8 C 0,0 UV-I 0,0 C 44 % 68 % 0 % 1018,8 hPa 0,0 l/m 0,0 km/h (0 Bft) 0,00 h 0,00 h 0,0 km/h (0 Bft)
30.09.2012 20:00 20,5 C 11,3 C 0,0 UV-I 0,0 C 47 % 77 % 0 % 1019,1 hPa 0,0 l/m 0,0 km/h (0 Bft) 0,00 h 0,00 h 0,0 km/h (0 Bft)
30.09.2012 21:00 19,9 C 9,8 C 0,0 UV-I 0,0 C 49 % 83 % 0 % 1019,3 hPa 0,0 l/m 0,0 km/h (0 Bft) 0,00 h 0,00 h 0,0 km/h (0 Bft)
30.09.2012 22:00 19,5 C 8,7 C 0,0 UV-I 0,0 C 50 % 87 % 0 % 1019,0 hPa 0,0 l/m 0,0 km/h (0 Bft) 0,00 h 0,00 h 0,0 km/h (0 Bft)
30.09.2012 23:00 19,2 C 8,1 C 0,0 UV-I 0,0 C 50 % 89 % 0 % 1018,7 hPa 0,0 l/m 0,0 km/h (0 Bft) 0,00 h 0,00 h 0,0 km/h (0 Bft)
Min-Datum _ 28.09.12 30.09.12 24.09.12 24.09.12 30.09.12 30.09.12 24.09.12 24.09.12 - 24.09.12 - - 24.09.12
_ Min-Zeit 05:44 08:12 00:00 00:00 16:24 16:34 00:00 15:08 - 04:18 - - 00:28
Minimum _ 17,9 C 6,3 C 0,0 UV-I 0,0 C 39 % 54 % 0 % 990,1 hPa - 0,0 km/h (0 Bft) - - 0,0 km/h (0 Bft)
Max-Datum _ 30.09.12 24.09.12 24.09.12 30.09.12 24.09.12 26.09.12 24.09.12 30.09.12 24.09.12 24.09.12 24.09.12 24.09.12 24.09.12
_ Max-Zeit 16:32 15:12 13:30 09:48 13:38 09:24 14:14 14:28 04:44 16:36 14:12 03:18 18:40
Maximum _ 24,2 C 21,6 C 6,9 UV-I 10,4 C 70 % 98 % 100 % 1024,1 hPa 4,2 l/m 18,5 km/h
W-SW (3 Bft)
0,03 h 0,03 h 48,6 km/h
O-SO (6 Bft)
Durchschnitt _ 19,5 C 13,3 C 0,4 UV-I 1,0 C 57 % 86 % 20 % 1006,6 hPa #26,4 l/m 3,9 km/h (1 Bft) #26:32 h #14:49 h 5,8 km/h (2 Bft)
© 2012 W. Hausmann